ASA42 PAJN-PAPG
Flight info
| Callsign | ASA42 |
|---|---|
| Flight time | N/A |
| Altitude | 15000 |
| Route | GLAZZ1 GLAZZ |
| Aircraft | B38M/M-SDE1FGHILORVWXY/HB1 |
Departure
| Time | 2026-04-22 00:30 |
|---|---|
| Airport | Juneau International Airport (PAJN) |
Arrival
| Time | N/A |
|---|---|
| Airport | Petersburg James A Johnson Airport (PAPG) |
| Time | Latitude | Longitude | Altitude | Speed | Heading |
|---|---|---|---|---|---|
| 2026-04-22 00:16 | 58.35874 | -134.58472 | 36 ft | 0 kts | 103° |
| 2026-04-22 00:22 | 58.35874 | -134.58473 | 36 ft | 1 kts | 103° |
| 2026-04-22 00:22 | 58.35878 | -134.58495 | 36 ft | 3 kts | 130° |
| 2026-04-22 00:23 | 58.35889 | -134.58521 | 36 ft | 1 kts | 121° |
| 2026-04-22 00:23 | 58.35894 | -134.58539 | 36 ft | 3 kts | 98° |
| 2026-04-22 00:23 | 58.35895 | -134.58549 | 36 ft | 3 kts | 21° |
| 2026-04-22 00:23 | 58.35889 | -134.58553 | 36 ft | 0 kts | 3° |
| 2026-04-22 00:25 | 58.35890 | -134.58553 | 36 ft | 1 kts | 0° |
| 2026-04-22 00:25 | 58.35903 | -134.58574 | 36 ft | 3 kts | 293° |
| 2026-04-22 00:25 | 58.35887 | -134.58609 | 36 ft | 4 kts | 188° |
| 2026-04-22 00:26 | 58.35857 | -134.58617 | 36 ft | 4 kts | 187° |
| 2026-04-22 00:26 | 58.35827 | -134.58620 | 36 ft | 4 kts | 182° |
| 2026-04-22 00:26 | 58.35783 | -134.58625 | 36 ft | 9 kts | 186° |
| 2026-04-22 00:26 | 58.35758 | -134.58718 | 36 ft | 10 kts | 279° |
| 2026-04-22 00:27 | 58.35778 | -134.58858 | 36 ft | 12 kts | 285° |
| 2026-04-22 00:27 | 58.35802 | -134.59028 | 37 ft | 14 kts | 285° |
| 2026-04-22 00:27 | 58.35829 | -134.59226 | 37 ft | 17 kts | 284° |
| 2026-04-22 00:27 | 58.35859 | -134.59436 | 37 ft | 17 kts | 286° |
| 2026-04-22 00:28 | 58.35872 | -134.59594 | 36 ft | 5 kts | 253° |
| 2026-04-22 00:28 | 58.35867 | -134.59610 | 36 ft | 0 kts | 238° |
| 2026-04-22 00:28 | 58.35867 | -134.59612 | 36 ft | 1 kts | 238° |
| 2026-04-22 00:28 | 58.35850 | -134.59643 | 36 ft | 8 kts | 211° |
| 2026-04-22 00:29 | 58.35776 | -134.59626 | 38 ft | 13 kts | 121° |
| 2026-04-22 00:29 | 58.35747 | -134.59438 | 36 ft | 17 kts | 105° |
| 2026-04-22 00:29 | 58.35692 | -134.59047 | 38 ft | 63 kts | 105° |
| 2026-04-22 00:29 | 58.35505 | -134.57707 | 41 ft | 142 kts | 105° |
| 2026-04-22 00:30 | 58.35231 | -134.55692 | 678 ft | 166 kts | 104° |
| 2026-04-22 00:30 | 58.34866 | -134.53479 | 1477 ft | 186 kts | 115° |
| 2026-04-22 00:30 | 58.34179 | -134.51343 | 2206 ft | 193 kts | 132° |
| 2026-04-22 00:30 | 58.33184 | -134.49363 | 2524 ft | 221 kts | 139° |
| 2026-04-22 00:31 | 58.32005 | -134.47289 | 3150 ft | 238 kts | 139° |
| 2026-04-22 00:31 | 58.30789 | -134.45110 | 4015 ft | 243 kts | 139° |
| 2026-04-22 00:31 | 58.29544 | -134.42777 | 4599 ft | 261 kts | 137° |
| 2026-04-22 00:31 | 58.28269 | -134.40324 | 5600 ft | 258 kts | 138° |
| 2026-04-22 00:32 | 58.27004 | -134.37763 | 6243 ft | 277 kts | 135° |
| 2026-04-22 00:32 | 58.25730 | -134.35021 | 7187 ft | 275 kts | 134° |
| 2026-04-22 00:32 | 58.24456 | -134.32239 | 7904 ft | 284 kts | 134° |
| 2026-04-22 00:32 | 58.23100 | -134.29442 | 8648 ft | 288 kts | 137° |
| 2026-04-22 00:33 | 58.21706 | -134.26720 | 9562 ft | 289 kts | 137° |
| 2026-04-22 00:33 | 58.20286 | -134.23941 | 10250 ft | 297 kts | 137° |
| 2026-04-22 00:33 | 58.18722 | -134.21240 | 10602 ft | 313 kts | 149° |
| 2026-04-22 00:33 | 58.16829 | -134.19008 | 10938 ft | 328 kts | 152° |
| 2026-04-22 00:34 | 58.14846 | -134.16684 | 11421 ft | 340 kts | 151° |
| 2026-04-22 00:34 | 58.12824 | -134.14296 | 12143 ft | 345 kts | 151° |
| 2026-04-22 00:34 | 58.10724 | -134.11993 | 12749 ft | 354 kts | 154° |
| 2026-04-22 00:34 | 58.08561 | -134.09704 | 13463 ft | 359 kts | 154° |
| 2026-04-22 00:35 | 58.06357 | -134.07356 | 14070 ft | 369 kts | 154° |
| 2026-04-22 00:35 | 58.04098 | -134.04943 | 14677 ft | 376 kts | 154° |
| 2026-04-22 00:35 | 58.01803 | -134.02492 | 14951 ft | 380 kts | 154° |
| 2026-04-22 00:35 | 57.99482 | -134.00017 | 15006 ft | 387 kts | 154° |
| 2026-04-22 00:36 | 57.97085 | -133.97694 | 14997 ft | 384 kts | 166° |
| 2026-04-22 00:36 | 57.94517 | -133.97106 | 14996 ft | 366 kts | 194° |
| 2026-04-22 00:36 | 57.92215 | -133.98674 | 15003 ft | 344 kts | 223° |
| 2026-04-22 00:36 | 57.90701 | -134.01894 | 15006 ft | 322 kts | 251° |
| 2026-04-22 00:37 | 57.90135 | -134.05871 | 15022 ft | 315 kts | 263° |
| 2026-04-22 00:37 | 57.89288 | -134.09725 | 15034 ft | 329 kts | 242° |
| 2026-04-22 00:37 | 57.87875 | -134.13150 | 15004 ft | 331 kts | 241° |
| 2026-04-22 00:37 | 57.86555 | -134.16686 | 15021 ft | 330 kts | 243° |
| 2026-04-22 00:38 | 57.85299 | -134.20281 | 15021 ft | 329 kts | 244° |
| 2026-04-22 00:38 | 57.84096 | -134.23865 | 15010 ft | 328 kts | 245° |
| 2026-04-22 00:38 | 57.82881 | -134.27557 | 15037 ft | 328 kts | 245° |
| 2026-04-22 00:38 | 57.81707 | -134.31167 | 15024 ft | 328 kts | 245° |
| 2026-04-22 00:39 | 57.80525 | -134.34823 | 14972 ft | 328 kts | 246° |
| 2026-04-22 00:39 | 57.79343 | -134.38491 | 14993 ft | 328 kts | 246° |
| 2026-04-22 00:39 | 57.78165 | -134.42150 | 15033 ft | 328 kts | 246° |
| 2026-04-22 00:39 | 57.76989 | -134.45803 | 15020 ft | 327 kts | 246° |
| 2026-04-22 00:40 | 57.75812 | -134.49450 | 15016 ft | 327 kts | 246° |
| 2026-04-22 00:40 | 57.74636 | -134.53091 | 15030 ft | 327 kts | 246° |
| 2026-04-22 00:40 | 57.73456 | -134.56738 | 14998 ft | 327 kts | 246° |
| 2026-04-22 00:40 | 57.72276 | -134.60379 | 15017 ft | 327 kts | 246° |
| 2026-04-22 00:41 | 57.71098 | -134.64013 | 14998 ft | 327 kts | 246° |
| 2026-04-22 00:41 | 57.69914 | -134.67657 | 15010 ft | 328 kts | 246° |
| 2026-04-22 00:41 | 57.68730 | -134.71295 | 15015 ft | 328 kts | 246° |
| 2026-04-22 00:41 | 57.67545 | -134.74929 | 14996 ft | 327 kts | 246° |
| 2026-04-22 00:42 | 57.66382 | -134.78488 | 15006 ft | 313 kts | 246° |
| 2026-04-22 00:42 | 57.65273 | -134.81879 | 15013 ft | 299 kts | 246° |
| 2026-04-22 00:42 | 57.64210 | -134.85128 | 14984 ft | 290 kts | 247° |
| 2026-04-22 00:42 | 57.63168 | -134.88307 | 14852 ft | 285 kts | 247° |
| 2026-04-22 00:43 | 57.62133 | -134.91460 | 14490 ft | 285 kts | 247° |
| 2026-04-22 00:43 | 57.61093 | -134.94624 | 14128 ft | 286 kts | 246° |
| 2026-04-22 00:43 | 57.60052 | -134.97787 | 13797 ft | 286 kts | 246° |
| 2026-04-22 00:43 | 57.59010 | -135.00948 | 13448 ft | 286 kts | 246° |
| 2026-04-22 00:44 | 57.57972 | -135.04093 | 13076 ft | 284 kts | 246° |
| 2026-04-22 00:44 | 57.56944 | -135.07202 | 12787 ft | 280 kts | 246° |
| 2026-04-22 00:44 | 57.55931 | -135.10267 | 12485 ft | 276 kts | 246° |
| 2026-04-22 00:44 | 57.54929 | -135.13291 | 12196 ft | 272 kts | 246° |
| 2026-04-22 00:45 | 57.53940 | -135.16271 | 11931 ft | 270 kts | 245° |
| 2026-04-22 00:45 | 57.52957 | -135.19236 | 11607 ft | 269 kts | 246° |
| 2026-04-22 00:45 | 57.51973 | -135.22191 | 11291 ft | 267 kts | 245° |
| 2026-04-22 00:45 | 57.51003 | -135.25106 | 11016 ft | 264 kts | 245° |
| 2026-04-22 00:46 | 57.50027 | -135.28034 | 10737 ft | 269 kts | 245° |
| 2026-04-22 00:46 | 57.49030 | -135.31020 | 10441 ft | 274 kts | 244° |
| 2026-04-22 00:46 | 57.48027 | -135.34021 | 10219 ft | 270 kts | 245° |
| 2026-04-22 00:46 | 57.46862 | -135.36737 | 10060 ft | 274 kts | 226° |
| 2026-04-22 00:47 | 57.45156 | -135.38415 | 9815 ft | 283 kts | 205° |
| 2026-04-22 00:47 | 57.43273 | -135.39459 | 9529 ft | 282 kts | 204° |
| 2026-04-22 00:47 | 57.41394 | -135.40481 | 9179 ft | 281 kts | 203° |
| 2026-04-22 00:47 | 57.39525 | -135.41484 | 8899 ft | 278 kts | 203° |
| 2026-04-22 00:48 | 57.37671 | -135.42470 | 8602 ft | 276 kts | 202° |
| 2026-04-22 00:48 | 57.35825 | -135.43446 | 8313 ft | 275 kts | 202° |
| 2026-04-22 00:48 | 57.33989 | -135.44415 | 7987 ft | 274 kts | 201° |
| 2026-04-22 00:48 | 57.32164 | -135.45376 | 7689 ft | 272 kts | 201° |
| 2026-04-22 00:49 | 57.30356 | -135.46328 | 7443 ft | 269 kts | 201° |
| 2026-04-22 00:49 | 57.28553 | -135.47276 | 7137 ft | 269 kts | 201° |
| 2026-04-22 00:49 | 57.26756 | -135.48219 | 6850 ft | 268 kts | 201° |
| 2026-04-22 00:49 | 57.24971 | -135.49154 | 6568 ft | 266 kts | 200° |
| 2026-04-22 00:50 | 57.23193 | -135.50086 | 6259 ft | 265 kts | 200° |
| 2026-04-22 00:50 | 57.21419 | -135.51012 | 5926 ft | 264 kts | 200° |
| 2026-04-22 00:50 | 57.19662 | -135.51933 | 5656 ft | 260 kts | 200° |
| 2026-04-22 00:50 | 57.17938 | -135.52833 | 5370 ft | 255 kts | 200° |
| 2026-04-22 00:51 | 57.16252 | -135.53709 | 5113 ft | 250 kts | 199° |
| 2026-04-22 00:51 | 57.14583 | -135.54543 | 4822 ft | 247 kts | 198° |
| 2026-04-22 00:51 | 57.12896 | -135.55136 | 4465 ft | 248 kts | 188° |
| 2026-04-22 00:51 | 57.11182 | -135.55290 | 4113 ft | 248 kts | 187° |
| 2026-04-22 00:52 | 57.09491 | -135.55446 | 3947 ft | 237 kts | 188° |
| 2026-04-22 00:52 | 57.07876 | -135.55677 | 3743 ft | 227 kts | 188° |
| 2026-04-22 00:52 | 57.06358 | -135.55884 | 3737 ft | 213 kts | 188° |
| 2026-04-22 00:52 | 57.04878 | -135.56095 | 3542 ft | 212 kts | 187° |
| 2026-04-22 00:53 | 57.03501 | -135.55545 | 3580 ft | 202 kts | 152° |
| 2026-04-22 00:53 | 57.02506 | -135.53728 | 3537 ft | 207 kts | 130° |
| 2026-04-22 00:53 | 57.01544 | -135.51775 | 3381 ft | 205 kts | 137° |
| 2026-04-22 00:53 | 57.00549 | -135.49925 | 3121 ft | 207 kts | 137° |
| 2026-04-22 00:54 | 56.99523 | -135.48110 | 3026 ft | 205 kts | 139° |
| 2026-04-22 00:54 | 56.98485 | -135.46303 | 2815 ft | 205 kts | 140° |
| 2026-04-22 00:54 | 56.97473 | -135.44563 | 2651 ft | 194 kts | 139° |
| 2026-04-22 00:54 | 56.96553 | -135.42855 | 2430 ft | 186 kts | 138° |
| 2026-04-22 00:55 | 56.95774 | -135.41038 | 2181 ft | 176 kts | 110° |
| 2026-04-22 00:55 | 56.95881 | -135.39005 | 1938 ft | 158 kts | 58° |
| 2026-04-22 00:55 | 56.97407 | -135.36009 | 1737 ft | 162 kts | 49° |
| 2026-04-22 00:56 | 56.98160 | -135.34439 | 1582 ft | 162 kts | 48° |
| 2026-04-22 00:56 | 56.98922 | -135.32935 | 1370 ft | 161 kts | 43° |
| 2026-04-22 00:56 | 56.99833 | -135.31724 | 1138 ft | 162 kts | 21° |
| 2026-04-22 00:56 | 57.00917 | -135.31332 | 904 ft | 157 kts | 354° |
| 2026-04-22 00:57 | 57.01964 | -135.31688 | 703 ft | 151 kts | 337° |
| 2026-04-22 00:57 | 57.02829 | -135.32653 | 496 ft | 141 kts | 309° |
| 2026-04-22 00:57 | 57.03531 | -135.33855 | 309 ft | 135 kts | 307° |
| 2026-04-22 00:57 | 57.04227 | -135.35237 | 567 ft | 159 kts | 309° |
| 2026-04-22 00:58 | 57.05030 | -135.36707 | 1406 ft | 166 kts | 314° |
| 2026-04-22 00:58 | 57.05897 | -135.38249 | 2178 ft | 184 kts | 313° |
| 2026-04-22 00:58 | 57.06760 | -135.40032 | 2706 ft | 184 kts | 296° |
| 2026-04-22 00:58 | 57.06919 | -135.42312 | 3105 ft | 185 kts | 258° |
| 2026-04-22 00:59 | 57.06467 | -135.44492 | 3181 ft | 180 kts | 248° |
| 2026-04-22 00:59 | 57.05986 | -135.46702 | 3595 ft | 193 kts | 252° |
| 2026-04-22 00:59 | 57.05503 | -135.49104 | 4250 ft | 208 kts | 252° |
| 2026-04-22 00:59 | 57.04988 | -135.51651 | 4843 ft | 215 kts | 251° |
| 2026-04-22 01:00 | 57.04303 | -135.54116 | 4861 ft | 220 kts | 231° |
| 2026-04-22 01:00 | 57.03071 | -135.55786 | 4987 ft | 225 kts | 212° |
| 2026-04-22 01:00 | 57.02093 | -135.56489 | 5032 ft | 233 kts | 199° |
| 2026-04-22 01:00 | 57.00429 | -135.56716 | 5005 ft | 251 kts | 180° |
| 2026-04-22 01:01 | 56.98660 | -135.56469 | 5004 ft | 258 kts | 180° |
| 2026-04-22 01:01 | 56.96861 | -135.56250 | 4830 ft | 261 kts | 180° |
| 2026-04-22 01:01 | 56.95035 | -135.56046 | 4408 ft | 264 kts | 181° |
| 2026-04-22 01:01 | 56.93229 | -135.55584 | 4144 ft | 263 kts | 163° |
| 2026-04-22 01:02 | 56.91758 | -135.53677 | 3737 ft | 263 kts | 128° |
| 2026-04-22 01:02 | 56.91033 | -135.50647 | 3285 ft | 263 kts | 96° |
| 2026-04-22 01:02 | 56.91203 | -135.47377 | 2923 ft | 255 kts | 67° |
| 2026-04-22 01:02 | 56.92128 | -135.44761 | 2801 ft | 241 kts | 44° |
| 2026-04-22 01:03 | 56.93293 | -135.42592 | 2565 ft | 237 kts | 41° |
| 2026-04-22 01:03 | 56.94511 | -135.40569 | 2303 ft | 235 kts | 40° |
| 2026-04-22 01:03 | 56.95675 | -135.38636 | 2173 ft | 216 kts | 42° |
| 2026-04-22 01:03 | 56.96734 | -135.36813 | 1878 ft | 202 kts | 43° |
| 2026-04-22 01:04 | 56.97729 | -135.35108 | 1658 ft | 185 kts | 43° |
| 2026-04-22 01:04 | 56.98595 | -135.33526 | 1427 ft | 167 kts | 46° |
| 2026-04-22 01:04 | 56.99371 | -135.32077 | 1236 ft | 159 kts | 37° |
| 2026-04-22 01:04 | 57.00381 | -135.31245 | 1054 ft | 158 kts | 5° |
| 2026-04-22 01:05 | 57.01437 | -135.31313 | 857 ft | 146 kts | 343° |
| 2026-04-22 01:05 | 57.02371 | -135.32054 | 621 ft | 148 kts | 323° |
| 2026-04-22 01:05 | 57.03116 | -135.33283 | 359 ft | 139 kts | 314° |
| 2026-04-22 01:05 | 57.03786 | -135.34516 | 128 ft | 134 kts | 314° |
| 2026-04-22 01:06 | 57.04419 | -135.35633 | 29 ft | 108 kts | 315° |
| 2026-04-22 01:06 | 57.04833 | -135.36381 | 32 ft | 62 kts | 316° |
| 2026-04-22 01:06 | 57.05136 | -135.36924 | 34 ft | 56 kts | 316° |
| 2026-04-22 01:06 | 57.05298 | -135.37213 | 35 ft | 16 kts | 318° |
| 2026-04-22 01:07 | 57.05382 | -135.37214 | 37 ft | 11 kts | 40° |
| 2026-04-22 01:07 | 57.05389 | -135.37108 | 39 ft | 8 kts | 121° |
| 2026-04-22 01:07 | 57.05350 | -135.37026 | 40 ft | 10 kts | 135° |
| 2026-04-22 01:07 | 57.05296 | -135.36929 | 37 ft | 12 kts | 135° |
| 2026-04-22 01:08 | 57.05236 | -135.36822 | 40 ft | 13 kts | 136° |
| 2026-04-22 01:08 | 57.05225 | -135.36685 | 39 ft | 8 kts | 75° |
| 2026-04-22 01:08 | 57.05233 | -135.36627 | 42 ft | 3 kts | 76° |
| 2026-04-22 01:08 | 57.05236 | -135.36605 | 43 ft | 0 kts | 77° |